createdAt,value
2023-03-28T00:02:40.213Z,98474.69
2023-03-28T00:05:11.872Z,98484.03
2023-03-28T00:07:45.548Z,98484.78
2023-03-28T00:10:20.460Z,98481.72
2023-03-28T00:12:50.172Z,98498.66
2023-03-28T00:15:21.390Z,98489.66
2023-03-28T00:18:01.088Z,98480.06
2023-03-28T00:20:35.360Z,98502.47
2023-03-28T00:23:08.842Z,98511.19
2023-03-28T00:25:42.884Z,98503.47
2023-03-28T00:31:07.141Z,98526.97
2023-03-28T00:33:41.074Z,98530.03
2023-03-28T00:36:17.418Z,98487.56
2023-03-28T00:38:49.345Z,98520.16
2023-03-28T00:41:27.708Z,98517.31
2023-03-28T00:44:41.893Z,98511.53
2023-03-28T00:47:19.420Z,98443.88
2023-03-28T00:49:53.057Z,98525.09
2023-03-28T00:52:31.574Z,98508.25
2023-03-28T00:55:07.515Z,98519.78
2023-03-28T00:57:38.625Z,98536.69
2023-03-28T01:00:15.115Z,98532.31
2023-03-28T01:02:51.730Z,98527.53
2023-03-28T01:05:30.148Z,98527.00
2023-03-28T01:10:58.881Z,98465.47
2023-03-28T01:13:55.108Z,98555.59
2023-03-28T01:16:34.901Z,98555.84
2023-03-28T01:19:21.306Z,98550.53
2023-03-28T01:22:40.700Z,98550.66
2023-03-28T01:25:48.052Z,98547.22
2023-03-28T01:28:35.473Z,98542.50
2023-03-28T01:31:43.643Z,98552.84
2023-03-28T01:34:47.877Z,98558.63
2023-03-28T01:37:36.395Z,98541.19
2023-03-28T01:40:39.377Z,98558.44
2023-03-28T01:43:37.006Z,98555.31
2023-03-28T01:46:42.124Z,98551.44
2023-03-28T01:49:33.841Z,98545.66
2023-03-28T01:52:30.702Z,98542.03
2023-03-28T01:55:24.474Z,98537.09
2023-03-28T01:58:22.246Z,98543.09
2023-03-28T02:01:06.512Z,98532.94
2023-03-28T02:03:47.566Z,98534.56
2023-03-28T02:06:47.540Z,98532.88
2023-03-28T02:09:24.838Z,98549.47
2023-03-28T02:12:39.791Z,98543.09
2023-03-28T02:15:28.785Z,98552.28
2023-03-28T02:18:24.122Z,98545.91
2023-03-28T02:21:09.278Z,98559.41
2023-03-28T02:24:13.431Z,98562.72
2023-03-28T02:27:07.847Z,98574.41
2023-03-28T02:30:01.345Z,98573.56
2023-03-28T02:37:03.263Z,98568.84
2023-03-28T02:40:15.608Z,98568.25
2023-03-28T02:43:23.324Z,98548.94
2023-03-28T02:46:15.565Z,98578.03
2023-03-28T02:49:49.190Z,98579.56
2023-03-28T02:52:42.630Z,98578.66
2023-03-28T02:55:19.021Z,98577.34
2023-03-28T02:58:41.117Z,98580.31
2023-03-28T03:01:30.493Z,98578.56
2023-03-28T03:04:02.505Z,98587.59
2023-03-28T03:06:37.967Z,98586.69
2023-03-28T03:09:09.563Z,98589.59
2023-03-28T03:11:49.097Z,98599.25
2023-03-28T03:14:23.796Z,98598.41
2023-03-28T03:16:58.722Z,98605.38
2023-03-28T03:19:32.730Z,98593.66
2023-03-28T03:22:03.567Z,98611.91
2023-03-28T03:24:42.300Z,98618.25
2023-03-28T03:27:13.305Z,98605.44
2023-03-28T03:32:39.567Z,98608.31
2023-03-28T03:35:11.859Z,98621.81
2023-03-28T03:37:46.641Z,98617.75
2023-03-28T03:40:23.805Z,98628.28
2023-03-28T03:42:54.457Z,98617.13
2023-03-28T03:45:33.099Z,98587.19
2023-03-28T03:48:06.848Z,98619.53
2023-03-28T03:50:36.178Z,98621.13
2023-03-28T03:53:10.990Z,98629.19
2023-03-28T03:55:49.208Z,98628.16
2023-03-28T03:58:29.037Z,98634.56
2023-03-28T04:01:06.193Z,98617.53
2023-03-28T04:03:44.994Z,98645.28
2023-03-28T04:06:21.726Z,98642.38
2023-03-28T04:08:51.656Z,98629.69
2023-03-28T04:11:36.084Z,98631.50
2023-03-28T04:14:07.910Z,98648.34
2023-03-28T04:16:44.203Z,98653.50
2023-03-28T04:19:24.245Z,98660.94
2023-03-28T04:21:52.910Z,98666.69
2023-03-28T04:24:27.131Z,98661.72
2023-03-28T04:27:28.178Z,98676.34
2023-03-28T04:29:55.858Z,98645.75
2023-03-28T04:32:55.819Z,98673.41
2023-03-28T04:35:37.015Z,98673.31
2023-03-28T04:38:20.709Z,98650.41
2023-03-28T04:44:19.434Z,98706.50
2023-03-28T04:46:58.483Z,98709.88
2023-03-28T04:49:37.364Z,98710.78
2023-03-28T04:52:14.925Z,98714.03
2023-03-28T04:54:51.434Z,98725.91
2023-03-28T04:57:22.488Z,98729.00
2023-03-28T04:59:58.929Z,98726.75
2023-03-28T05:03:07.788Z,98731.97
2023-03-28T05:05:46.119Z,98739.94
2023-03-28T05:08:20.525Z,98727.59
2023-03-28T05:11:03.210Z,98736.28
2023-03-28T05:13:45.458Z,98737.78
2023-03-28T05:16:43.021Z,98751.13
2023-03-28T05:19:48.651Z,98755.50
2023-03-28T05:25:14.681Z,98769.81
2023-03-28T05:27:55.044Z,98769.91
2023-03-28T05:33:16.910Z,98758.72
2023-03-28T05:35:48.819Z,98771.69
2023-03-28T05:38:36.027Z,98783.63
2023-03-28T05:41:22.763Z,98768.69
2023-03-28T05:44:01.398Z,98788.53
2023-03-28T05:46:53.821Z,98790.63
2023-03-28T05:49:24.312Z,98756.63
2023-03-28T05:51:55.383Z,98790.84
2023-03-28T05:54:26.111Z,98784.84
2023-03-28T05:56:53.990Z,98805.19
2023-03-28T05:59:28.330Z,98798.47
2023-03-28T06:01:57.643Z,98803.38
2023-03-28T06:04:42.455Z,98801.59
2023-03-28T06:07:18.579Z,98800.59
2023-03-28T06:09:53.257Z,98804.91
2023-03-28T06:15:10.894Z,98804.34
2023-03-28T06:20:38.194Z,98822.72
2023-03-28T06:23:06.032Z,98821.16
2023-03-28T06:25:37.475Z,98834.78
2023-03-28T06:28:17.174Z,98829.31
2023-03-28T06:31:18.862Z,98836.44
2023-03-28T06:33:48.463Z,98838.09
2023-03-28T06:36:19.803Z,98818.91
2023-03-28T06:38:52.629Z,98840.06
2023-03-28T06:41:25.790Z,98844.59
2023-03-28T06:43:58.422Z,98834.88
2023-03-28T06:46:52.865Z,98837.38
2023-03-28T06:49:25.609Z,98848.88
2023-03-28T06:52:19.343Z,98843.31
2023-03-28T06:54:48.784Z,98838.66
2023-03-28T06:57:27.186Z,98836.53
2023-03-28T07:00:10.623Z,98844.63
2023-03-28T07:02:59.309Z,98831.47
2023-03-28T07:05:36.945Z,98840.16
2023-03-28T07:08:04.997Z,98842.56
2023-03-28T07:10:42.672Z,98851.25
2023-03-28T07:16:29.943Z,98837.16
2023-03-28T07:21:45.051Z,98843.88
2023-03-28T07:24:16.537Z,98840.97
2023-03-28T07:27:16.205Z,98860.25
2023-03-28T07:29:50.459Z,98863.53
2023-03-28T07:32:43.253Z,98858.09
2023-03-28T07:38:05.639Z,98845.06
2023-03-28T07:40:51.285Z,98846.56
2023-03-28T07:43:35.041Z,98863.63
2023-03-28T07:46:10.483Z,98871.28
2023-03-28T07:48:43.042Z,98873.16
2023-03-28T07:51:14.695Z,98877.13
2023-03-28T07:53:44.412Z,98879.22
2023-03-28T07:56:24.749Z,98865.78
2023-03-28T07:59:24.716Z,98882.84
2023-03-28T08:02:03.492Z,98886.97
2023-03-28T08:04:35.071Z,98877.91
2023-03-28T08:07:10.166Z,98882.31
2023-03-28T08:12:33.186Z,98869.66
2023-03-28T08:15:11.013Z,98877.63
2023-03-28T08:17:54.241Z,98872.41
2023-03-28T08:20:24.198Z,98884.50
2023-03-28T08:23:19.829Z,98872.94
2023-03-28T08:26:08.068Z,98883.56
2023-03-28T08:28:42.761Z,98876.63
2023-03-28T08:31:18.825Z,98875.19
2023-03-28T08:34:01.135Z,98866.06
2023-03-28T08:36:50.356Z,98879.44
2023-03-28T08:39:55.090Z,98884.63
2023-03-28T08:42:59.238Z,98877.28
2023-03-28T08:45:43.520Z,98887.06
2023-03-28T08:48:50.017Z,98875.25
2023-03-28T08:51:41.553Z,98878.63
2023-03-28T08:54:58.148Z,98894.78
2023-03-28T08:58:01.431Z,98873.66
2023-03-28T09:00:40.542Z,98881.63
2023-03-28T09:03:24.570Z,98873.22
2023-03-28T09:06:32.272Z,98869.19
2023-03-28T09:09:26.403Z,98889.50
2023-03-28T09:12:58.665Z,98890.88
2023-03-28T09:16:20.202Z,98884.56
2023-03-28T09:19:44.828Z,98879.41
2023-03-28T09:23:05.964Z,98882.06
2023-03-28T09:26:14.178Z,98875.69
2023-03-28T09:29:22.208Z,98879.56
2023-03-28T09:31:58.810Z,98874.28
2023-03-28T09:34:44.022Z,98866.59
2023-03-28T09:37:37.690Z,98884.75
2023-03-28T09:40:27.001Z,98882.22
2023-03-28T09:43:29.913Z,98894.78
2023-03-28T09:46:51.636Z,98889.97
2023-03-28T09:49:46.734Z,98884.97
2023-03-28T09:52:28.226Z,98885.91
2023-03-28T09:54:56.315Z,98892.53
2023-03-28T09:57:26.907Z,98875.47
2023-03-28T10:00:02.162Z,98884.50
2023-03-28T10:02:59.133Z,98885.38
2023-03-28T10:05:48.675Z,98872.81
2023-03-28T10:08:42.882Z,98884.66
2023-03-28T10:12:04.753Z,98891.91
2023-03-28T10:14:51.250Z,98884.63
2023-03-28T10:17:52.485Z,98828.03
2023-03-28T10:20:29.616Z,98876.09
2023-03-28T10:23:07.206Z,98892.94
2023-03-28T10:25:41.113Z,98883.78
2023-03-28T10:28:21.980Z,98877.44
2023-03-28T10:30:58.915Z,98903.94
2023-03-28T10:33:44.959Z,98901.78
2023-03-28T10:36:37.958Z,98895.25
2023-03-28T10:39:33.101Z,98894.09
2023-03-28T10:42:20.821Z,98908.47
2023-03-28T10:45:39.824Z,98900.69
2023-03-28T10:48:36.549Z,98898.03
2023-03-28T10:51:21.577Z,98887.38
2023-03-28T10:54:11.940Z,98888.06
2023-03-28T10:56:59.724Z,98891.75
2023-03-28T10:59:49.588Z,98876.00
2023-03-28T11:02:45.241Z,98883.34
2023-03-28T11:06:08.075Z,98883.22
2023-03-28T11:09:24.794Z,98895.19
2023-03-28T11:12:47.709Z,98896.03
2023-03-28T11:16:23.465Z,98905.59
2023-03-28T11:20:25.081Z,98891.91
2023-03-28T11:23:06.932Z,98899.75
2023-03-28T11:26:03.765Z,98888.47
2023-03-28T11:28:58.824Z,98898.66
2023-03-28T11:32:19.093Z,98893.97
2023-03-28T11:35:18.243Z,98897.25
2023-03-28T11:38:23.837Z,98877.22
2023-03-28T11:41:17.294Z,98898.72
2023-03-28T11:44:22.032Z,98898.47
2023-03-28T11:47:22.454Z,98896.59
2023-03-28T11:50:31.019Z,98881.97
2023-03-28T11:53:14.632Z,98885.47
2023-03-28T11:56:10.489Z,98876.16
2023-03-28T11:59:18.004Z,98867.19
2023-03-28T12:01:53.620Z,98869.09
2023-03-28T12:04:34.963Z,98877.75
2023-03-28T12:07:18.517Z,98868.78
2023-03-28T12:10:38.293Z,98866.28
2023-03-28T12:14:05.229Z,98871.91
2023-03-28T12:16:52.061Z,98842.38
2023-03-28T12:19:54.065Z,98858.66
2023-03-28T12:22:57.397Z,98863.00
2023-03-28T12:26:12.607Z,98865.53
2023-03-28T12:28:49.912Z,98855.00
2023-03-28T12:31:43.936Z,98856.63
2023-03-28T12:34:51.939Z,98857.38
2023-03-28T12:38:11.927Z,98858.13
2023-03-28T12:41:03.930Z,98847.81
2023-03-28T12:44:06.114Z,98868.78
2023-03-28T12:46:58.508Z,98829.28
2023-03-28T12:49:49.396Z,98854.41
2023-03-28T12:52:39.367Z,98859.88
2023-03-28T12:55:29.134Z,98859.53
2023-03-28T12:58:51.748Z,98871.38
2023-03-28T13:01:53.029Z,98868.88
2023-03-28T13:05:06.669Z,98868.41
2023-03-28T13:08:00.446Z,98874.50
2023-03-28T13:11:02.094Z,98860.53
2023-03-28T13:14:04.937Z,98864.75
2023-03-28T13:17:01.551Z,98868.63
2023-03-28T13:19:56.881Z,98867.53
2023-03-28T13:22:34.046Z,98868.25
2023-03-28T13:25:27.785Z,98860.13
2023-03-28T13:28:13.878Z,98866.97
2023-03-28T13:30:47.448Z,98855.41
2023-03-28T13:33:29.551Z,98867.19
2023-03-28T13:36:14.602Z,98866.22
2023-03-28T13:39:11.652Z,98882.22
2023-03-28T13:41:48.781Z,98872.66
2023-03-28T13:44:32.824Z,98860.66
2023-03-28T13:47:03.112Z,98861.53
2023-03-28T13:50:04.428Z,98872.91
2023-03-28T13:52:46.162Z,98863.34
2023-03-28T13:55:22.029Z,98863.47
2023-03-28T13:57:54.334Z,98867.47
2023-03-28T14:00:31.216Z,98867.63
2023-03-28T14:03:12.565Z,98859.13
2023-03-28T14:05:46.993Z,98860.09
2023-03-28T14:08:17.563Z,98855.91
2023-03-28T14:11:01.208Z,98860.31
2023-03-28T14:13:31.293Z,98838.78
2023-03-28T14:16:02.338Z,98842.16
2023-03-28T14:18:35.444Z,98845.16
2023-03-28T14:21:12.285Z,98845.84
2023-03-28T14:23:55.139Z,98854.88
2023-03-28T14:26:28.399Z,98856.00
2023-03-28T14:29:09.953Z,98859.97
2023-03-28T14:31:51.549Z,98858.66
2023-03-28T14:34:33.547Z,98863.78
2023-03-28T14:37:22.521Z,98876.50
2023-03-28T14:39:51.928Z,98847.56
2023-03-28T14:42:31.814Z,98874.31
2023-03-28T14:45:01.858Z,98866.75
2023-03-28T14:47:39.149Z,98854.84
2023-03-28T14:50:21.988Z,98859.72
2023-03-28T14:55:41.392Z,98878.91
2023-03-28T14:58:19.425Z,98880.81
2023-03-28T15:00:51.917Z,98875.69
2023-03-28T15:03:57.057Z,98876.94
2023-03-28T15:06:26.231Z,98867.84
2023-03-28T15:08:59.787Z,98868.69
2023-03-28T15:11:43.972Z,98843.03
2023-03-28T15:14:43.942Z,98884.28
2023-03-28T15:17:26.849Z,98874.66
2023-03-28T15:19:58.570Z,98870.72
2023-03-28T15:22:30.993Z,98877.22
2023-03-28T15:25:00.013Z,98875.22
2023-03-28T15:27:44.699Z,98876.44
2023-03-28T15:30:19.561Z,98862.91
2023-03-28T15:32:49.279Z,98871.41
2023-03-28T15:35:46.365Z,98886.88
2023-03-28T15:38:23.944Z,98881.34
2023-03-28T15:41:54.189Z,98889.31
2023-03-28T15:44:43.696Z,98877.16
2023-03-28T15:47:30.606Z,98888.09
2023-03-28T15:50:16.324Z,98882.78
2023-03-28T15:52:53.961Z,98897.00
2023-03-28T15:55:34.550Z,98882.94
2023-03-28T15:58:07.579Z,98896.31
2023-03-28T16:00:43.715Z,98897.38
2023-03-28T16:03:39.077Z,98897.22
2023-03-28T16:09:32.277Z,98903.09
2023-03-28T16:12:03.438Z,98902.69
2023-03-28T16:14:57.209Z,98904.94
2023-03-28T16:17:39.525Z,98914.28
2023-03-28T16:20:30.356Z,98907.94
2023-03-28T16:23:10.680Z,98919.28
2023-03-28T16:25:40.903Z,98905.97
2023-03-28T16:31:34.179Z,98882.72
2023-03-28T16:34:19.748Z,98934.69
2023-03-28T16:36:56.756Z,98930.19
2023-03-28T16:39:27.658Z,98932.88
2023-03-28T16:44:39.637Z,98944.31
2023-03-28T16:47:15.879Z,98937.69
2023-03-28T16:49:44.023Z,98943.38
2023-03-28T16:52:18.738Z,98937.63
2023-03-28T16:54:52.332Z,98946.50
2023-03-28T16:57:25.722Z,98951.91
2023-03-28T17:00:02.757Z,98948.03
2023-03-28T17:02:32.660Z,98939.44
2023-03-28T17:05:01.295Z,98955.66
2023-03-28T17:07:40.930Z,98914.00
2023-03-28T17:10:09.895Z,98958.38
2023-03-28T17:12:46.461Z,98961.56
2023-03-28T17:15:24.157Z,98966.50
2023-03-28T17:17:56.136Z,98972.72
2023-03-28T17:20:26.336Z,98969.31
2023-03-28T17:23:01.697Z,98968.88
2023-03-28T17:25:41.546Z,98969.59
2023-03-28T17:31:38.762Z,98981.31
2023-03-28T17:34:14.437Z,98977.66
2023-03-28T17:36:44.544Z,98981.16
2023-03-28T17:39:16.066Z,98987.97
2023-03-28T17:41:49.209Z,98976.91
2023-03-28T17:44:25.747Z,99005.81
2023-03-28T17:46:57.739Z,98944.19
2023-03-28T17:49:27.799Z,99012.72
2023-03-28T17:51:58.044Z,99011.88
2023-03-28T17:54:26.194Z,99034.72
2023-03-28T17:57:01.873Z,99036.13
2023-03-28T17:59:32.497Z,99045.22
2023-03-28T18:02:02.983Z,99052.09
2023-03-28T18:04:36.521Z,99048.25
2023-03-28T18:07:32.429Z,99054.81
2023-03-28T18:10:09.547Z,99065.31
2023-03-28T18:12:40.632Z,99072.34
2023-03-28T18:15:17.947Z,99062.22
2023-03-28T18:18:04.147Z,99065.91
2023-03-28T18:20:35.149Z,99090.16
2023-03-28T18:23:12.738Z,99088.41
2023-03-28T18:25:46.439Z,99101.09
2023-03-28T18:28:16.854Z,99106.00
2023-03-28T18:30:46.101Z,99087.94
2023-03-28T18:33:19.858Z,99110.53
2023-03-28T18:35:51.756Z,99091.50
2023-03-28T18:38:25.253Z,99108.06
2023-03-28T18:40:55.921Z,99110.28
2023-03-28T18:46:14.507Z,99126.41
2023-03-28T18:48:46.275Z,99132.25
2023-03-28T18:51:17.698Z,99136.16
2023-03-28T18:54:00.391Z,99129.66
2023-03-28T18:56:29.297Z,99130.88
2023-03-28T18:59:05.479Z,99112.94
2023-03-28T19:01:45.001Z,99131.06
2023-03-28T19:04:18.560Z,99114.56
2023-03-28T19:06:57.864Z,99145.41
2023-03-28T19:09:26.233Z,99145.13
2023-03-28T19:12:01.463Z,99139.38
2023-03-28T19:14:31.853Z,99143.31
2023-03-28T19:17:13.865Z,99144.41
2023-03-28T19:19:44.438Z,99149.63
2023-03-28T19:22:14.523Z,99152.00
2023-03-28T19:24:48.466Z,99140.91
2023-03-28T19:27:26.199Z,99151.41
2023-03-28T19:29:55.359Z,99148.13
2023-03-28T19:32:23.337Z,99156.31
2023-03-28T19:35:07.873Z,99172.94
2023-03-28T19:37:38.857Z,99167.69
2023-03-28T19:40:17.258Z,99151.41
2023-03-28T19:42:48.135Z,99148.16
2023-03-28T19:45:18.389Z,99150.34
2023-03-28T19:47:50.247Z,99166.13
2023-03-28T19:50:20.936Z,99177.88
2023-03-28T19:52:52.031Z,99169.69
2023-03-28T19:55:23.960Z,99171.53
2023-03-28T19:57:58.876Z,99170.59
2023-03-28T20:00:36.200Z,99177.13
2023-03-28T20:03:07.614Z,99174.31
2023-03-28T20:05:52.030Z,99184.28
2023-03-28T20:08:24.935Z,99150.50
2023-03-28T20:10:55.741Z,99176.34
2023-03-28T20:13:27.185Z,99178.03
2023-03-28T20:16:05.237Z,99139.28
2023-03-28T20:18:37.049Z,99193.69
2023-03-28T20:21:09.598Z,99196.88
2023-03-28T20:23:44.811Z,99181.53
2023-03-28T20:26:25.833Z,99202.50
2023-03-28T20:29:07.804Z,99192.81
2023-03-28T20:31:41.413Z,99210.03
2023-03-28T20:34:15.033Z,99202.66
2023-03-28T20:36:52.904Z,99207.28
2023-03-28T20:39:39.607Z,99201.06
2023-03-28T20:42:10.213Z,99207.97
2023-03-28T20:44:39.464Z,99188.16
2023-03-28T20:47:21.452Z,99210.22
2023-03-28T20:49:56.444Z,99209.47
2023-03-28T20:52:28.166Z,99213.66
2023-03-28T20:55:11.803Z,99215.56
2023-03-28T20:57:53.475Z,99193.00
2023-03-28T21:00:34.411Z,99217.13
2023-03-28T21:03:14.362Z,99218.50
2023-03-28T21:05:48.050Z,99195.78
2023-03-28T21:08:22.941Z,99204.88
2023-03-28T21:10:59.486Z,99195.25
2023-03-28T21:13:28.479Z,99215.22
2023-03-28T21:18:46.907Z,99203.69
2023-03-28T21:21:20.693Z,99201.41
2023-03-28T21:23:52.650Z,99206.09
2023-03-28T21:26:27.744Z,99205.97
2023-03-28T21:28:56.900Z,99194.34
2023-03-28T21:31:28.418Z,99192.88
2023-03-28T21:34:06.734Z,99205.25
2023-03-28T21:36:38.336Z,99200.84
2023-03-28T21:39:06.530Z,99190.78
2023-03-28T21:41:40.458Z,99214.16
2023-03-28T21:44:11.067Z,99222.72
2023-03-28T21:46:41.126Z,99215.34
2023-03-28T21:49:15.409Z,99217.00
2023-03-28T21:51:46.840Z,99220.84
2023-03-28T21:54:17.169Z,99222.75
2023-03-28T21:56:55.938Z,99223.16
2023-03-28T21:59:34.715Z,99219.19
2023-03-28T22:02:05.357Z,99222.81
2023-03-28T22:04:39.221Z,99214.88
2023-03-28T22:07:16.975Z,99214.38
2023-03-28T22:09:47.735Z,99214.06
2023-03-28T22:12:22.838Z,99220.56
2023-03-28T22:14:58.892Z,99219.59
2023-03-28T22:17:32.011Z,99225.63
2023-03-28T22:20:03.003Z,99226.22
2023-03-28T22:22:38.904Z,99219.75
2023-03-28T22:25:11.044Z,99210.34
2023-03-28T22:27:42.647Z,99156.19
2023-03-28T22:30:17.029Z,99219.31
2023-03-28T22:32:48.471Z,99215.28
2023-03-28T22:35:32.378Z,99218.88
2023-03-28T22:38:03.774Z,99204.66
2023-03-28T22:40:34.020Z,99208.13
2023-03-28T22:43:10.871Z,99222.75
2023-03-28T22:45:48.946Z,99224.97
2023-03-28T22:48:34.396Z,99216.84
2023-03-28T22:51:12.209Z,99215.75
2023-03-28T22:53:46.049Z,99220.38
2023-03-28T22:56:23.253Z,99225.94
2023-03-28T22:58:54.644Z,99224.09
2023-03-28T23:01:28.257Z,99218.88
2023-03-28T23:03:56.506Z,99208.91
2023-03-28T23:06:26.478Z,99220.25
2023-03-28T23:09:15.892Z,99219.31
2023-03-28T23:11:46.152Z,99217.56
2023-03-28T23:14:20.817Z,99220.31
2023-03-28T23:16:50.614Z,99225.25
2023-03-28T23:22:06.530Z,99232.91
2023-03-28T23:24:38.192Z,99207.84
2023-03-28T23:27:09.084Z,99237.81
2023-03-28T23:29:40.027Z,99222.31
2023-03-28T23:32:16.582Z,99244.66
2023-03-28T23:34:50.181Z,99246.31
2023-03-28T23:37:22.786Z,99240.53
2023-03-28T23:39:57.075Z,99227.28
2023-03-28T23:42:29.019Z,99239.56
2023-03-28T23:44:58.666Z,99231.91
2023-03-28T23:47:41.288Z,99214.16
2023-03-28T23:50:19.336Z,99220.34
2023-03-28T23:52:56.888Z,99222.47
2023-03-28T23:55:29.059Z,99198.41
2023-03-28T23:58:04.494Z,99219.34
